sensor_id;sensor_type;location;lat;lon;timestamp;pressure;altitude;pressure_sealevel;temperature;humidity
54144;BME280;40050;47.324;18.792;2023-02-01T00:00:19;1004.38;;;5.50;66.52
54144;BME280;40050;47.324;18.792;2023-02-01T00:02:22;1004.39;;;5.52;66.29
54144;BME280;40050;47.324;18.792;2023-02-01T00:04:24;1004.37;;;5.54;66.28
54144;BME280;40050;47.324;18.792;2023-02-01T00:06:27;1004.33;;;5.55;65.79
54144;BME280;40050;47.324;18.792;2023-02-01T00:08:30;1004.40;;;5.51;65.24
54144;BME280;40050;47.324;18.792;2023-02-01T00:10:33;1004.40;;;5.53;66.01
54144;BME280;40050;47.324;18.792;2023-02-01T00:14:48;1004.45;;;5.57;66.14
54144;BME280;40050;47.324;18.792;2023-02-01T00:16:50;1004.37;;;5.58;65.72
54144;BME280;40050;47.324;18.792;2023-02-01T00:19:03;1004.37;;;5.61;65.81
54144;BME280;40050;47.324;18.792;2023-02-01T00:21:07;1004.25;;;5.55;65.56
54144;BME280;40050;47.324;18.792;2023-02-01T00:23:09;1004.32;;;5.63;65.38
54144;BME280;40050;47.324;18.792;2023-02-01T00:25:12;1004.25;;;5.58;65.30
54144;BME280;40050;47.324;18.792;2023-02-01T00:27:14;1004.23;;;5.61;65.50
54144;BME280;40050;47.324;18.792;2023-02-01T00:29:18;1004.21;;;5.60;65.21
54144;BME280;40050;47.324;18.792;2023-02-01T00:31:21;1004.26;;;5.54;64.48
54144;BME280;40050;47.324;18.792;2023-02-01T00:33:23;1004.28;;;5.54;65.16
54144;BME280;40050;47.324;18.792;2023-02-01T00:35:26;1004.20;;;5.61;65.38
54144;BME280;40050;47.324;18.792;2023-02-01T00:37:29;1004.31;;;5.57;64.95
54144;BME280;40050;47.324;18.792;2023-02-01T00:39:31;1004.13;;;5.53;64.96
54144;BME280;40050;47.324;18.792;2023-02-01T00:41:34;1004.25;;;5.61;65.12
54144;BME280;40050;47.324;18.792;2023-02-01T00:43:36;1004.22;;;5.54;64.81
54144;BME280;40050;47.324;18.792;2023-02-01T00:45:39;1004.26;;;5.58;65.09
54144;BME280;40050;47.324;18.792;2023-02-01T00:47:43;1004.23;;;5.62;65.14
54144;BME280;40050;47.324;18.792;2023-02-01T00:49:45;1004.15;;;5.58;65.06
54144;BME280;40050;47.324;18.792;2023-02-01T00:51:47;1004.18;;;5.56;64.96
54144;BME280;40050;47.324;18.792;2023-02-01T00:53:50;1004.28;;;5.55;64.77
54144;BME280;40050;47.324;18.792;2023-02-01T00:55:52;1004.26;;;5.54;64.98
54144;BME280;40050;47.324;18.792;2023-02-01T00:57:58;1004.37;;;5.58;65.11
54144;BME280;40050;47.324;18.792;2023-02-01T01:00:01;1004.36;;;5.59;65.05
54144;BME280;40050;47.324;18.792;2023-02-01T01:02:04;1004.33;;;5.58;64.95
54144;BME280;40050;47.324;18.792;2023-02-01T01:04:06;1004.36;;;5.58;64.63
54144;BME280;40050;47.324;18.792;2023-02-01T01:06:10;1004.34;;;5.60;64.92
54144;BME280;40050;47.324;18.792;2023-02-01T01:08:13;1004.34;;;5.58;64.82
54144;BME280;40050;47.324;18.792;2023-02-01T01:10:15;1004.35;;;5.57;64.64
54144;BME280;40050;47.324;18.792;2023-02-01T01:12:18;1004.30;;;5.52;64.77
54144;BME280;40050;47.324;18.792;2023-02-01T01:14:21;1004.30;;;5.55;64.78
54144;BME280;40050;47.324;18.792;2023-02-01T01:16:25;1004.19;;;5.45;64.50
54144;BME280;40050;47.324;18.792;2023-02-01T01:18:37;1004.33;;;5.48;64.55
54144;BME280;40050;47.324;18.792;2023-02-01T01:20:40;1004.28;;;5.49;64.57
54144;BME280;40050;47.324;18.792;2023-02-01T01:22:43;1004.25;;;5.39;64.55
54144;BME280;40050;47.324;18.792;2023-02-01T01:24:45;1004.23;;;5.35;64.73
54144;BME280;40050;47.324;18.792;2023-02-01T01:26:48;1004.30;;;5.31;64.71
54144;BME280;40050;47.324;18.792;2023-02-01T01:28:52;1004.29;;;5.30;64.74
54144;BME280;40050;47.324;18.792;2023-02-01T01:30:54;1004.27;;;5.30;64.77
54144;BME280;40050;47.324;18.792;2023-02-01T01:32:57;1004.12;;;5.27;64.84
54144;BME280;40050;47.324;18.792;2023-02-01T01:35:01;1004.08;;;5.21;64.60
54144;BME280;40050;47.324;18.792;2023-02-01T01:37:04;1003.99;;;5.09;64.76
54144;BME280;40050;47.324;18.792;2023-02-01T01:48:26;1003.84;;;5.03;64.46
54144;BME280;40050;47.324;18.792;2023-02-01T01:50:31;1003.89;;;5.05;64.49
54144;BME280;40050;47.324;18.792;2023-02-01T01:52:35;1003.87;;;5.06;64.34
54144;BME280;40050;47.324;18.792;2023-02-01T01:54:40;1003.92;;;5.09;64.35
54144;BME280;40050;47.324;18.792;2023-02-01T01:56:49;1003.93;;;5.09;64.00
54144;BME280;40050;47.324;18.792;2023-02-01T01:58:53;1003.99;;;5.12;64.07
54144;BME280;40050;47.324;18.792;2023-02-01T02:00:55;1003.98;;;5.09;63.91
54144;BME280;40050;47.324;18.792;2023-02-01T02:02:59;1004.02;;;5.09;63.90
54144;BME280;40050;47.324;18.792;2023-02-01T02:05:03;1003.99;;;5.13;64.02
54144;BME280;40050;47.324;18.792;2023-02-01T02:07:10;1003.97;;;5.17;64.04
54144;BME280;40050;47.324;18.792;2023-02-01T02:09:13;1003.96;;;5.19;63.97
54144;BME280;40050;47.324;18.792;2023-02-01T02:11:16;1003.95;;;5.16;63.97
54144;BME280;40050;47.324;18.792;2023-02-01T02:13:19;1003.83;;;5.15;63.98
54144;BME280;40050;47.324;18.792;2023-02-01T02:15:21;1003.84;;;5.18;63.82
54144;BME280;40050;47.324;18.792;2023-02-01T02:17:33;1003.61;;;5.03;63.86
54144;BME280;40050;47.324;18.792;2023-02-01T02:22:10;1003.66;;;5.12;64.16
54144;BME280;40050;47.324;18.792;2023-02-01T02:26:33;1003.46;;;5.00;64.72
54144;BME280;40050;47.324;18.792;2023-02-01T02:28:48;1003.60;;;5.11;64.88
54144;BME280;40050;47.324;18.792;2023-02-01T02:35:45;1003.58;;;5.15;65.58
54144;BME280;40050;47.324;18.792;2023-02-01T02:37:55;1003.67;;;5.13;65.88
54144;BME280;40050;47.324;18.792;2023-02-01T02:40:08;1003.65;;;5.12;65.98
54144;BME280;40050;47.324;18.792;2023-02-01T02:42:19;1003.71;;;5.18;66.10
54144;BME280;40050;47.324;18.792;2023-02-01T02:46:52;1003.65;;;5.21;66.02
54144;BME280;40050;47.324;18.792;2023-02-01T02:49:04;1003.66;;;5.23;66.01
54144;BME280;40050;47.324;18.792;2023-02-01T02:51:12;1003.62;;;5.23;65.91
54144;BME280;40050;47.324;18.792;2023-02-01T02:53:19;1003.56;;;5.23;66.02
54144;BME280;40050;47.324;18.792;2023-02-01T02:55:25;1003.58;;;5.22;66.20
54144;BME280;40050;47.324;18.792;2023-02-01T02:57:32;1003.65;;;5.24;66.14
54144;BME280;40050;47.324;18.792;2023-02-01T02:59:36;1003.63;;;5.24;66.13
54144;BME280;40050;47.324;18.792;2023-02-01T03:01:40;1003.59;;;5.25;66.22
54144;BME280;40050;47.324;18.792;2023-02-01T03:03:42;1003.57;;;5.23;66.22
54144;BME280;40050;47.324;18.792;2023-02-01T03:05:46;1003.60;;;5.23;66.22
54144;BME280;40050;47.324;18.792;2023-02-01T03:08:10;1003.53;;;5.21;66.37
54144;BME280;40050;47.324;18.792;2023-02-01T03:10:05;1003.58;;;5.24;66.26
54144;BME280;40050;47.324;18.792;2023-02-01T03:12:11;1003.53;;;5.24;66.22
54144;BME280;40050;47.324;18.792;2023-02-01T03:14:14;1003.57;;;5.25;66.25
54144;BME280;40050;47.324;18.792;2023-02-01T03:16:34;1003.55;;;5.26;66.26
54144;BME280;40050;47.324;18.792;2023-02-01T03:18:52;1003.54;;;5.22;66.24
54144;BME280;40050;47.324;18.792;2023-02-01T03:20:57;1003.59;;;5.20;66.28
54144;BME280;40050;47.324;18.792;2023-02-01T03:23:00;1003.54;;;5.21;66.18
54144;BME280;40050;47.324;18.792;2023-02-01T03:25:05;1003.60;;;5.21;66.26
54144;BME280;40050;47.324;18.792;2023-02-01T03:27:13;1003.61;;;5.23;66.13
54144;BME280;40050;47.324;18.792;2023-02-01T03:29:17;1003.64;;;5.24;66.05
54144;BME280;40050;47.324;18.792;2023-02-01T03:31:21;1003.61;;;5.22;65.98
54144;BME280;40050;47.324;18.792;2023-02-01T03:33:25;1003.59;;;5.23;65.91
54144;BME280;40050;47.324;18.792;2023-02-01T03:35:30;1003.58;;;5.23;65.86
54144;BME280;40050;47.324;18.792;2023-02-01T03:37:34;1003.37;;;5.07;65.79
54144;BME280;40050;47.324;18.792;2023-02-01T03:39:41;1003.58;;;5.22;65.80
54144;BME280;40050;47.324;18.792;2023-02-01T03:41:49;1003.52;;;5.14;65.88
54144;BME280;40050;47.324;18.792;2023-02-01T03:46:11;1003.58;;;5.16;65.92
54144;BME280;40050;47.324;18.792;2023-02-01T03:48:17;1003.52;;;5.11;65.82
54144;BME280;40050;47.324;18.792;2023-02-01T03:50:20;1003.58;;;5.16;65.97
54144;BME280;40050;47.324;18.792;2023-02-01T03:52:38;1003.52;;;5.11;66.08
54144;BME280;40050;47.324;18.792;2023-02-01T03:54:42;1003.54;;;5.13;66.13
54144;BME280;40050;47.324;18.792;2023-02-01T03:56:45;1003.62;;;5.13;66.28
54144;BME280;40050;47.324;18.792;2023-02-01T03:58:49;1003.65;;;5.12;66.23
54144;BME280;40050;47.324;18.792;2023-02-01T04:00:53;1003.46;;;5.02;66.40
54144;BME280;40050;47.324;18.792;2023-02-01T04:02:56;1003.62;;;5.12;66.41
54144;BME280;40050;47.324;18.792;2023-02-01T04:04:59;1003.57;;;5.16;66.28
54144;BME280;40050;47.324;18.792;2023-02-01T04:07:01;1003.60;;;5.16;66.24
54144;BME280;40050;47.324;18.792;2023-02-01T04:09:04;1003.59;;;5.14;66.36
54144;BME280;40050;47.324;18.792;2023-02-01T04:11:06;1003.58;;;5.15;66.35
54144;BME280;40050;47.324;18.792;2023-02-01T04:13:09;1003.60;;;5.13;66.38
54144;BME280;40050;47.324;18.792;2023-02-01T04:15:12;1003.51;;;5.11;66.39
54144;BME280;40050;47.324;18.792;2023-02-01T04:17:14;1003.53;;;5.10;66.40
54144;BME280;40050;47.324;18.792;2023-02-01T04:19:17;1003.48;;;5.12;66.32
54144;BME280;40050;47.324;18.792;2023-02-01T04:21:19;1003.50;;;5.12;66.28
54144;BME280;40050;47.324;18.792;2023-02-01T04:23:22;1003.51;;;5.15;66.25
54144;BME280;40050;47.324;18.792;2023-02-01T04:25:24;1003.49;;;5.15;66.25
54144;BME280;40050;47.324;18.792;2023-02-01T04:27:26;1003.45;;;5.13;66.36
54144;BME280;40050;47.324;18.792;2023-02-01T04:29:29;1003.45;;;5.12;66.43
54144;BME280;40050;47.324;18.792;2023-02-01T04:31:31;1003.51;;;5.08;66.54
54144;BME280;40050;47.324;18.792;2023-02-01T04:33:34;1003.41;;;5.05;66.75
54144;BME280;40050;47.324;18.792;2023-02-01T04:35:36;1003.45;;;5.04;66.82
54144;BME280;40050;47.324;18.792;2023-02-01T04:37:39;1003.43;;;5.06;66.93
54144;BME280;40050;47.324;18.792;2023-02-01T04:39:41;1003.45;;;5.01;66.89
54144;BME280;40050;47.324;18.792;2023-02-01T04:41:44;1003.44;;;4.99;67.15
54144;BME280;40050;47.324;18.792;2023-02-01T04:43:46;1003.46;;;5.01;67.34
54144;BME280;40050;47.324;18.792;2023-02-01T04:45:49;1003.53;;;5.02;67.27
54144;BME280;40050;47.324;18.792;2023-02-01T04:47:52;1003.48;;;4.92;67.38
54144;BME280;40050;47.324;18.792;2023-02-01T04:49:56;1003.66;;;4.99;67.45
54144;BME280;40050;47.324;18.792;2023-02-01T04:51:58;1003.55;;;4.96;67.39
54144;BME280;40050;47.324;18.792;2023-02-01T04:54:01;1003.68;;;5.04;67.35
54144;BME280;40050;47.324;18.792;2023-02-01T04:56:04;1003.68;;;5.02;67.35
54144;BME280;40050;47.324;18.792;2023-02-01T04:58:07;1003.62;;;5.04;67.35
54144;BME280;40050;47.324;18.792;2023-02-01T05:00:10;1003.65;;;5.02;67.41
54144;BME280;40050;47.324;18.792;2023-02-01T05:02:12;1003.75;;;5.01;67.38
54144;BME280;40050;47.324;18.792;2023-02-01T05:04:15;1003.80;;;5.02;67.36
54144;BME280;40050;47.324;18.792;2023-02-01T05:06:17;1003.85;;;4.98;67.38
54144;BME280;40050;47.324;18.792;2023-02-01T05:08:20;1003.88;;;4.98;67.45
54144;BME280;40050;47.324;18.792;2023-02-01T05:10:22;1003.89;;;5.01;67.50
54144;BME280;40050;47.324;18.792;2023-02-01T05:12:25;1003.90;;;5.01;67.46
54144;BME280;40050;47.324;18.792;2023-02-01T05:14:27;1003.94;;;4.99;67.50
54144;BME280;40050;47.324;18.792;2023-02-01T05:16:29;1003.93;;;5.00;67.50
54144;BME280;40050;47.324;18.792;2023-02-01T05:18:32;1004.02;;;4.99;67.51
54144;BME280;40050;47.324;18.792;2023-02-01T05:20:34;1003.84;;;4.91;67.44
54144;BME280;40050;47.324;18.792;2023-02-01T05:22:37;1003.98;;;5.02;67.38
54144;BME280;40050;47.324;18.792;2023-02-01T05:24:39;1004.03;;;5.02;67.38
54144;BME280;40050;47.324;18.792;2023-02-01T05:26:42;1004.03;;;5.03;67.35
54144;BME280;40050;47.324;18.792;2023-02-01T05:28:44;1004.04;;;5.00;67.45
54144;BME280;40050;47.324;18.792;2023-02-01T05:30:47;1003.96;;;4.96;67.53
54144;BME280;40050;47.324;18.792;2023-02-01T05:32:50;1003.97;;;4.96;67.45
54144;BME280;40050;47.324;18.792;2023-02-01T05:34:53;1003.93;;;4.97;67.51
54144;BME280;40050;47.324;18.792;2023-02-01T05:36:55;1003.87;;;4.95;67.50
54144;BME280;40050;47.324;18.792;2023-02-01T05:38:58;1003.94;;;4.87;67.75
54144;BME280;40050;47.324;18.792;2023-02-01T05:41:01;1003.93;;;4.85;67.87
54144;BME280;40050;47.324;18.792;2023-02-01T05:43:03;1003.97;;;4.87;67.93
54144;BME280;40050;47.324;18.792;2023-02-01T05:45:06;1003.96;;;4.84;67.93
54144;BME280;40050;47.324;18.792;2023-02-01T05:47:08;1003.99;;;4.84;68.06
54144;BME280;40050;47.324;18.792;2023-02-01T05:49:11;1004.01;;;4.78;68.12
54144;BME280;40050;47.324;18.792;2023-02-01T05:51:14;1004.05;;;4.79;68.17
54144;BME280;40050;47.324;18.792;2023-02-01T05:53:16;1004.01;;;4.80;68.07
54144;BME280;40050;47.324;18.792;2023-02-01T05:55:19;1004.08;;;4.83;68.03
54144;BME280;40050;47.324;18.792;2023-02-01T05:57:34;1004.02;;;4.79;68.14
54144;BME280;40050;47.324;18.792;2023-02-01T05:59:40;1003.96;;;4.77;68.12
54144;BME280;40050;47.324;18.792;2023-02-01T06:01:42;1003.93;;;4.79;68.05
54144;BME280;40050;47.324;18.792;2023-02-01T06:03:45;1003.96;;;4.76;68.16
54144;BME280;40050;47.324;18.792;2023-02-01T06:05:47;1003.91;;;4.66;68.43
54144;BME280;40050;47.324;18.792;2023-02-01T06:07:50;1004.01;;;4.67;68.59
54144;BME280;40050;47.324;18.792;2023-02-01T06:09:53;1004.01;;;4.66;68.61
54144;BME280;40050;47.324;18.792;2023-02-01T06:11:55;1004.02;;;4.66;68.55
54144;BME280;40050;47.324;18.792;2023-02-01T06:13:58;1004.04;;;4.68;68.50
54144;BME280;40050;47.324;18.792;2023-02-01T06:16:02;1004.05;;;4.67;68.50
54144;BME280;40050;47.324;18.792;2023-02-01T06:18:04;1004.12;;;4.69;68.46
54144;BME280;40050;47.324;18.792;2023-02-01T06:20:07;1004.15;;;4.69;68.45
54144;BME280;40050;47.324;18.792;2023-02-01T06:22:10;1004.10;;;4.67;68.53
54144;BME280;40050;47.324;18.792;2023-02-01T06:24:12;1004.19;;;4.68;68.47
54144;BME280;40050;47.324;18.792;2023-02-01T06:26:16;1004.19;;;4.65;68.65
54144;BME280;40050;47.324;18.792;2023-02-01T06:28:19;1004.13;;;4.61;68.73
54144;BME280;40050;47.324;18.792;2023-02-01T06:30:21;1004.16;;;4.62;68.75
54144;BME280;40050;47.324;18.792;2023-02-01T06:32:24;1004.12;;;4.58;68.85
54144;BME280;40050;47.324;18.792;2023-02-01T06:34:27;1004.07;;;4.59;68.82
54144;BME280;40050;47.324;18.792;2023-02-01T06:36:29;1004.11;;;4.62;68.91
54144;BME280;40050;47.324;18.792;2023-02-01T06:38:37;1004.09;;;4.62;68.95
54144;BME280;40050;47.324;18.792;2023-02-01T06:40:40;1004.11;;;4.59;68.99
54144;BME280;40050;47.324;18.792;2023-02-01T06:42:42;1004.27;;;4.68;69.97
54144;BME280;40050;47.324;18.792;2023-02-01T06:44:45;1004.30;;;4.64;69.42
54144;BME280;40050;47.324;18.792;2023-02-01T06:46:47;1004.32;;;4.69;69.25
54144;BME280;40050;47.324;18.792;2023-02-01T06:48:50;1004.31;;;4.70;69.33
54144;BME280;40050;47.324;18.792;2023-02-01T06:50:52;1004.32;;;4.70;69.26
54144;BME280;40050;47.324;18.792;2023-02-01T06:52:54;1004.34;;;4.74;69.15
54144;BME280;40050;47.324;18.792;2023-02-01T06:54:57;1004.35;;;4.72;69.23
54144;BME280;40050;47.324;18.792;2023-02-01T06:56:59;1004.37;;;4.73;69.24
54144;BME280;40050;47.324;18.792;2023-02-01T06:59:05;1004.43;;;4.77;69.20
54144;BME280;40050;47.324;18.792;2023-02-01T07:01:09;1004.46;;;4.81;69.12
54144;BME280;40050;47.324;18.792;2023-02-01T07:03:11;1004.55;;;4.83;69.11
54144;BME280;40050;47.324;18.792;2023-02-01T07:05:14;1004.54;;;4.83;69.10
54144;BME280;40050;47.324;18.792;2023-02-01T07:07:16;1004.70;;;4.85;69.19
54144;BME280;40050;47.324;18.792;2023-02-01T07:09:19;1004.67;;;4.88;69.17
54144;BME280;40050;47.324;18.792;2023-02-01T07:11:21;1004.73;;;4.90;68.99
54144;BME280;40050;47.324;18.792;2023-02-01T07:13:24;1004.72;;;4.90;69.01
54144;BME280;40050;47.324;18.792;2023-02-01T07:15:27;1004.78;;;4.93;69.06
54144;BME280;40050;47.324;18.792;2023-02-01T07:17:30;1004.79;;;4.95;69.01
54144;BME280;40050;47.324;18.792;2023-02-01T07:19:32;1004.84;;;4.99;69.04
54144;BME280;40050;47.324;18.792;2023-02-01T07:21:35;1004.79;;;5.05;68.93
54144;BME280;40050;47.324;18.792;2023-02-01T07:23:37;1004.81;;;5.09;68.80
54144;BME280;40050;47.324;18.792;2023-02-01T07:25:40;1004.85;;;5.13;68.79
54144;BME280;40050;47.324;18.792;2023-02-01T07:27:42;1004.80;;;5.17;68.83
54144;BME280;40050;47.324;18.792;2023-02-01T07:29:45;1004.79;;;5.21;68.78
54144;BME280;40050;47.324;18.792;2023-02-01T07:31:47;1004.77;;;5.24;68.60
54144;BME280;40050;47.324;18.792;2023-02-01T07:33:50;1004.73;;;5.30;68.72
54144;BME280;40050;47.324;18.792;2023-02-01T07:35:52;1004.77;;;5.36;68.43
54144;BME280;40050;47.324;18.792;2023-02-01T07:37:57;1004.78;;;5.41;68.51
54144;BME280;40050;47.324;18.792;2023-02-01T07:39:59;1004.91;;;5.49;68.63
54144;BME280;40050;47.324;18.792;2023-02-01T07:42:02;1004.84;;;5.55;68.59
54144;BME280;40050;47.324;18.792;2023-02-01T07:44:05;1004.69;;;5.58;68.53
54144;BME280;40050;47.324;18.792;2023-02-01T07:46:07;1004.75;;;5.74;68.43
54144;BME280;40050;47.324;18.792;2023-02-01T07:48:10;1004.73;;;5.85;68.22
54144;BME280;40050;47.324;18.792;2023-02-01T07:50:12;1004.67;;;5.92;67.98
54144;BME280;40050;47.324;18.792;2023-02-01T07:52:15;1004.62;;;6.00;67.79
54144;BME280;40050;47.324;18.792;2023-02-01T07:54:17;1004.77;;;6.17;67.23
54144;BME280;40050;47.324;18.792;2023-02-01T07:56:20;1004.65;;;6.16;66.63
54144;BME280;40050;47.324;18.792;2023-02-01T07:58:23;1004.77;;;6.34;66.54
54144;BME280;40050;47.324;18.792;2023-02-01T08:00:26;1004.79;;;6.43;66.19
54144;BME280;40050;47.324;18.792;2023-02-01T08:02:28;1004.86;;;6.58;66.21
54144;BME280;40050;47.324;18.792;2023-02-01T08:04:31;1004.88;;;6.70;66.19
54144;BME280;40050;47.324;18.792;2023-02-01T08:06:34;1004.80;;;6.78;66.21
54144;BME280;40050;47.324;18.792;2023-02-01T08:08:36;1004.90;;;7.02;65.79
54144;BME280;40050;47.324;18.792;2023-02-01T08:10:39;1004.88;;;7.16;65.92
54144;BME280;40050;47.324;18.792;2023-02-01T08:12:44;1004.95;;;7.25;65.71
54144;BME280;40050;47.324;18.792;2023-02-01T08:14:55;1004.97;;;7.40;63.48
54144;BME280;40050;47.324;18.792;2023-02-01T08:16:58;1004.96;;;7.53;64.44
54144;BME280;40050;47.324;18.792;2023-02-01T08:19:00;1004.99;;;7.66;63.67
54144;BME280;40050;47.324;18.792;2023-02-01T08:21:07;1005.04;;;7.77;63.27
54144;BME280;40050;47.324;18.792;2023-02-01T08:23:10;1005.06;;;7.84;61.90
54144;BME280;40050;47.324;18.792;2023-02-01T08:25:13;1005.10;;;7.93;62.38
54144;BME280;40050;47.324;18.792;2023-02-01T08:27:15;1005.21;;;8.04;61.38
54144;BME280;40050;47.324;18.792;2023-02-01T08:29:18;1005.20;;;8.12;60.45
54144;BME280;40050;47.324;18.792;2023-02-01T08:31:21;1005.26;;;8.18;59.66
54144;BME280;40050;47.324;18.792;2023-02-01T08:33:24;1005.32;;;8.26;59.51
54144;BME280;40050;47.324;18.792;2023-02-01T08:35:27;1005.03;;;8.22;59.81
54144;BME280;40050;47.324;18.792;2023-02-01T08:37:29;1005.23;;;8.50;59.06
54144;BME280;40050;47.324;18.792;2023-02-01T08:39:32;1005.15;;;8.65;59.58
54144;BME280;40050;47.324;18.792;2023-02-01T08:41:34;1005.11;;;8.77;59.01
54144;BME280;40050;47.324;18.792;2023-02-01T08:43:37;1005.16;;;8.95;59.88
54144;BME280;40050;47.324;18.792;2023-02-01T08:45:39;1005.13;;;9.09;58.61
54144;BME280;40050;47.324;18.792;2023-02-01T08:47:42;1005.18;;;9.21;58.74
54144;BME280;40050;47.324;18.792;2023-02-01T08:49:45;1005.12;;;9.30;57.58
54144;BME280;40050;47.324;18.792;2023-02-01T08:51:47;1005.08;;;9.47;58.53
54144;BME280;40050;47.324;18.792;2023-02-01T08:53:50;1005.08;;;9.50;57.43
54144;BME280;40050;47.324;18.792;2023-02-01T08:55:53;1004.98;;;9.46;56.80
54144;BME280;40050;47.324;18.792;2023-02-01T08:57:55;1004.61;;;9.19;56.25
54144;BME280;40050;47.324;18.792;2023-02-01T08:59:58;1004.90;;;9.32;56.77
54144;BME280;40050;47.324;18.792;2023-02-01T09:02:01;1004.86;;;9.27;57.24
54144;BME280;40050;47.324;18.792;2023-02-01T09:04:03;1004.78;;;9.26;57.46
54144;BME280;40050;47.324;18.792;2023-02-01T09:06:07;1004.83;;;9.22;56.75
54144;BME280;40050;47.324;18.792;2023-02-01T09:08:11;1004.79;;;9.19;57.37
54144;BME280;40050;47.324;18.792;2023-02-01T09:10:14;1004.75;;;9.11;57.55
54144;BME280;40050;47.324;18.792;2023-02-01T09:12:17;1004.80;;;9.13;57.66
54144;BME280;40050;47.324;18.792;2023-02-01T09:14:19;1004.76;;;9.04;57.41
54144;BME280;40050;47.324;18.792;2023-02-01T09:16:22;1004.82;;;9.01;57.85
54144;BME280;40050;47.324;18.792;2023-02-01T09:18:24;1004.94;;;8.95;58.01
54144;BME280;40050;47.324;18.792;2023-02-01T09:20:27;1005.00;;;8.92;58.28
54144;BME280;40050;47.324;18.792;2023-02-01T09:22:30;1004.94;;;8.84;58.40
54144;BME280;40050;47.324;18.792;2023-02-01T09:24:32;1004.96;;;8.79;58.47
54144;BME280;40050;47.324;18.792;2023-02-01T09:26:35;1004.96;;;8.70;58.87
54144;BME280;40050;47.324;18.792;2023-02-01T09:28:38;1004.95;;;8.65;59.01
54144;BME280;40050;47.324;18.792;2023-02-01T09:30:40;1005.06;;;8.61;59.16
54144;BME280;40050;47.324;18.792;2023-02-01T09:32:43;1004.96;;;8.46;59.60
54144;BME280;40050;47.324;18.792;2023-02-01T09:34:46;1005.01;;;8.43;60.22
54144;BME280;40050;47.324;18.792;2023-02-01T09:36:48;1005.09;;;8.43;60.16
54144;BME280;40050;47.324;18.792;2023-02-01T09:38:50;1005.10;;;8.36;60.47
54144;BME280;40050;47.324;18.792;2023-02-01T09:40:54;1005.15;;;8.38;60.63
54144;BME280;40050;47.324;18.792;2023-02-01T09:43:04;1005.17;;;8.34;60.85
54144;BME280;40050;47.324;18.792;2023-02-01T09:45:16;1005.11;;;8.33;61.07
54144;BME280;40050;47.324;18.792;2023-02-01T09:47:22;1005.10;;;8.32;61.28
54144;BME280;40050;47.324;18.792;2023-02-01T09:49:32;1005.07;;;8.28;61.32
54144;BME280;40050;47.324;18.792;2023-02-01T09:51:37;1005.08;;;8.28;61.54
54144;BME280;40050;47.324;18.792;2023-02-01T09:53:41;1004.93;;;8.19;61.56
54144;BME280;40050;47.324;18.792;2023-02-01T09:55:46;1004.89;;;8.12;61.84
54144;BME280;40050;47.324;18.792;2023-02-01T09:57:51;1004.96;;;8.23;61.67
54144;BME280;40050;47.324;18.792;2023-02-01T10:00:05;1004.97;;;8.24;61.53
54144;BME280;40050;47.324;18.792;2023-02-01T10:02:30;1004.91;;;8.23;61.71
54144;BME280;40050;47.324;18.792;2023-02-01T10:04:24;1004.87;;;8.19;61.73
54144;BME280;40050;47.324;18.792;2023-02-01T10:06:33;1004.71;;;8.14;61.79
54144;BME280;40050;47.324;18.792;2023-02-01T10:11:08;1004.71;;;8.23;61.85
54144;BME280;40050;47.324;18.792;2023-02-01T10:15:50;1004.50;;;8.30;61.71
54144;BME280;40050;47.324;18.792;2023-02-01T10:18:11;1004.43;;;8.34;61.62
54144;BME280;40050;47.324;18.792;2023-02-01T10:20:23;1004.37;;;8.35;61.74
54144;BME280;40050;47.324;18.792;2023-02-01T10:22:42;1004.39;;;8.38;61.41
54144;BME280;40050;47.324;18.792;2023-02-01T10:27:17;1004.47;;;8.44;61.69
54144;BME280;40050;47.324;18.792;2023-02-01T10:29:21;1004.47;;;8.45;61.83
54144;BME280;40050;47.324;18.792;2023-02-01T10:31:25;1004.44;;;8.48;61.63
54144;BME280;40050;47.324;18.792;2023-02-01T10:33:36;1004.38;;;8.43;61.93
54144;BME280;40050;47.324;18.792;2023-02-01T10:35:42;1004.38;;;8.50;61.65
54144;BME280;40050;47.324;18.792;2023-02-01T10:37:46;1004.33;;;8.47;61.60
54144;BME280;40050;47.324;18.792;2023-02-01T10:39:48;1004.33;;;8.51;61.75
54144;BME280;40050;47.324;18.792;2023-02-01T10:41:52;1004.29;;;8.48;61.67
54144;BME280;40050;47.324;18.792;2023-02-01T10:43:55;1004.24;;;8.52;61.51
54144;BME280;40050;47.324;18.792;2023-02-01T10:45:59;1004.27;;;8.53;61.59
54144;BME280;40050;47.324;18.792;2023-02-01T10:48:02;1004.19;;;8.54;61.69
54144;BME280;40050;47.324;18.792;2023-02-01T10:52:35;1004.13;;;8.55;61.76
54144;BME280;40050;47.324;18.792;2023-02-01T10:54:39;1004.17;;;8.53;61.76
54144;BME280;40050;47.324;18.792;2023-02-01T10:56:43;1004.08;;;8.59;61.83
54144;BME280;40050;47.324;18.792;2023-02-01T10:58:46;1004.02;;;8.56;61.83
54144;BME280;40050;47.324;18.792;2023-02-01T11:00:59;1003.98;;;8.57;61.63
54144;BME280;40050;47.324;18.792;2023-02-01T11:03:03;1003.92;;;8.59;62.08
54144;BME280;40050;47.324;18.792;2023-02-01T11:05:16;1003.94;;;8.61;61.47
54144;BME280;40050;47.324;18.792;2023-02-01T11:07:23;1003.87;;;8.65;61.68
54144;BME280;40050;47.324;18.792;2023-02-01T11:09:26;1003.88;;;8.73;61.16
54144;BME280;40050;47.324;18.792;2023-02-01T11:11:29;1003.89;;;8.74;60.83
54144;BME280;40050;47.324;18.792;2023-02-01T11:13:32;1003.83;;;8.70;60.82
54144;BME280;40050;47.324;18.792;2023-02-01T11:15:38;1003.82;;;8.67;61.17
54144;BME280;40050;47.324;18.792;2023-02-01T11:17:45;1003.78;;;8.67;61.17
54144;BME280;40050;47.324;18.792;2023-02-01T11:20:02;1003.76;;;8.70;61.09
54144;BME280;40050;47.324;18.792;2023-02-01T11:22:05;1003.68;;;8.68;61.09
54144;BME280;40050;47.324;18.792;2023-02-01T11:24:11;1003.63;;;8.64;61.25
54144;BME280;40050;47.324;18.792;2023-02-01T11:26:23;1003.47;;;8.58;60.78
54144;BME280;40050;47.324;18.792;2023-02-01T11:28:29;1003.56;;;8.68;60.69
54144;BME280;40050;47.324;18.792;2023-02-01T11:30:34;1003.46;;;8.69;60.69
54144;BME280;40050;47.324;18.792;2023-02-01T11:32:38;1003.12;;;8.49;60.74
54144;BME280;40050;47.324;18.792;2023-02-01T11:34:43;1003.42;;;8.63;61.27
54144;BME280;40050;47.324;18.792;2023-02-01T11:36:46;1003.38;;;8.67;61.02
54144;BME280;40050;47.324;18.792;2023-02-01T11:41:24;1003.24;;;8.76;60.91
54144;BME280;40050;47.324;18.792;2023-02-01T11:43:28;1003.18;;;8.74;60.24